createdAt,value
2019-02-08T00:01:53.660Z,2.90
2019-02-08T00:04:34.610Z,2.90
2019-02-08T00:07:15.336Z,2.90
2019-02-08T00:09:54.626Z,2.90
2019-02-08T00:12:42.845Z,2.90
2019-02-08T00:15:30.952Z,2.90
2019-02-08T00:18:19.052Z,2.90
2019-02-08T00:21:07.222Z,2.90
2019-02-08T00:23:55.408Z,2.90
2019-02-08T00:26:43.597Z,2.80
2019-02-08T00:29:31.766Z,2.80
2019-02-08T00:32:19.887Z,2.80
2019-02-08T00:35:08.094Z,2.80
2019-02-08T00:37:56.128Z,2.80
2019-02-08T00:40:44.300Z,2.80
2019-02-08T00:43:32.511Z,2.70
2019-02-08T00:46:20.771Z,2.70
2019-02-08T00:49:08.966Z,2.70
2019-02-08T00:51:57.140Z,2.70
2019-02-08T00:54:45.237Z,2.70
2019-02-08T00:57:33.408Z,2.70
2019-02-08T01:00:42.188Z,2.60
2019-02-08T01:03:30.225Z,2.60
2019-02-08T01:05:59.194Z,2.60
2019-02-08T01:08:40.181Z,2.50
2019-02-08T01:11:21.013Z,2.50
2019-02-08T01:14:01.606Z,2.50
2019-02-08T01:16:42.505Z,2.50
2019-02-08T01:19:23.835Z,2.50
2019-02-08T01:22:03.123Z,2.50
2019-02-08T01:24:51.537Z,2.40
2019-02-08T01:27:39.715Z,2.40
2019-02-08T01:30:28.278Z,2.40
2019-02-08T01:33:16.477Z,2.30
2019-02-08T01:36:04.588Z,2.30
2019-02-08T01:38:52.670Z,2.30
2019-02-08T01:41:40.758Z,2.20
2019-02-08T01:44:21.442Z,2.20
2019-02-08T01:47:02.038Z,2.20
2019-02-08T01:49:42.641Z,2.20
2019-02-08T01:52:22.986Z,2.20
2019-02-08T01:55:03.884Z,2.20
2019-02-08T01:57:44.346Z,2.20
2019-02-08T02:00:25.116Z,2.20
2019-02-08T02:03:06.405Z,2.20
2019-02-08T02:05:47.177Z,2.20
2019-02-08T02:08:28.421Z,2.20
2019-02-08T02:11:09.140Z,2.20
2019-02-08T02:13:49.580Z,2.20
2019-02-08T02:16:30.175Z,2.20
2019-02-08T02:19:11.043Z,2.20
2019-02-08T02:21:39.932Z,2.20
2019-02-08T02:24:28.111Z,2.20
2019-02-08T02:27:16.201Z,2.20
2019-02-08T02:33:32.851Z,2.20
2019-02-08T02:36:20.876Z,2.20
2019-02-08T02:39:09.167Z,2.20
2019-02-08T02:41:57.287Z,2.20
2019-02-08T02:44:45.358Z,2.20
2019-02-08T02:47:33.436Z,2.20
2019-02-08T02:50:14.403Z,2.20
2019-02-08T02:52:54.929Z,2.20
2019-02-08T02:58:18.348Z,2.20
2019-02-08T03:00:59.677Z,2.20
2019-02-08T03:03:40.345Z,2.20
2019-02-08T03:06:21.071Z,2.20
2019-02-08T03:09:01.839Z,2.20
2019-02-08T03:11:42.644Z,2.20
2019-02-08T03:14:23.528Z,2.20
2019-02-08T03:17:04.763Z,2.30
2019-02-08T03:19:45.453Z,2.30
2019-02-08T03:22:26.168Z,2.30
2019-02-08T03:25:06.866Z,2.30
2019-02-08T03:27:48.301Z,2.30
2019-02-08T03:33:11.566Z,2.30
2019-02-08T03:35:40.469Z,2.20
2019-02-08T03:38:09.537Z,2.20
2019-02-08T03:40:57.618Z,2.20
2019-02-08T03:43:26.502Z,2.20
2019-02-08T03:45:55.565Z,2.20
2019-02-08T03:48:24.627Z,2.30
2019-02-08T03:50:53.726Z,2.30
2019-02-08T03:53:22.663Z,2.30
2019-02-08T03:55:58.167Z,2.20
2019-02-08T03:58:22.261Z,2.20
2019-02-08T04:03:46.557Z,2.30
2019-02-08T04:06:15.472Z,2.30
2019-02-08T04:08:44.291Z,2.30
2019-02-08T04:11:13.252Z,2.30
2019-02-08T04:14:01.392Z,2.30
2019-02-08T04:16:49.506Z,2.40
2019-02-08T04:19:37.635Z,2.40
2019-02-08T04:22:25.659Z,2.40
2019-02-08T04:25:14.357Z,2.40
2019-02-08T04:28:02.417Z,2.40
2019-02-08T04:30:50.479Z,2.40
2019-02-08T04:33:38.621Z,2.40
2019-02-08T04:36:26.665Z,2.40
2019-02-08T04:39:14.802Z,2.40
2019-02-08T04:42:02.866Z,2.40
2019-02-08T04:44:50.993Z,2.40
2019-02-08T04:47:39.128Z,2.40
2019-02-08T04:50:27.334Z,2.40
2019-02-08T04:53:15.592Z,2.30
2019-02-08T04:56:03.664Z,2.40
2019-02-08T04:58:51.782Z,2.30
2019-02-08T05:01:39.985Z,2.30
2019-02-08T05:04:28.072Z,2.30
2019-02-08T05:07:23.319Z,2.30
2019-02-08T05:10:11.744Z,2.30
2019-02-08T05:12:59.962Z,2.30
2019-02-08T05:15:48.051Z,2.30
2019-02-08T05:18:36.206Z,2.30
2019-02-08T05:21:24.265Z,2.30
2019-02-08T05:24:12.332Z,2.30
2019-02-08T05:27:00.344Z,2.30
2019-02-08T05:29:48.400Z,2.30
2019-02-08T05:32:36.414Z,2.30
2019-02-08T05:35:24.518Z,2.30
2019-02-08T05:38:12.671Z,2.30
2019-02-08T05:41:00.875Z,2.30
2019-02-08T05:43:48.914Z,2.30
2019-02-08T05:46:31.074Z,2.30
2019-02-08T05:49:12.528Z,2.30
2019-02-08T05:51:53.506Z,2.30
2019-02-08T05:54:34.626Z,2.30
2019-02-08T05:57:15.172Z,2.30
2019-02-08T05:59:55.612Z,2.30
2019-02-08T06:02:36.915Z,2.30
2019-02-08T06:05:17.408Z,2.30
2019-02-08T06:07:58.663Z,2.30
2019-02-08T06:10:39.110Z,2.20
2019-02-08T06:13:19.819Z,2.20
2019-02-08T06:16:00.197Z,2.20
2019-02-08T06:18:40.672Z,2.20
2019-02-08T06:21:21.517Z,2.20
2019-02-08T06:24:02.121Z,2.10
2019-02-08T06:26:42.679Z,2.10
2019-02-08T06:29:23.289Z,2.10
2019-02-08T06:32:04.006Z,2.10
2019-02-08T06:34:44.761Z,2.10
2019-02-08T06:37:25.595Z,2.10
2019-02-08T06:40:06.482Z,2.10
2019-02-08T06:42:47.030Z,2.10
2019-02-08T06:45:27.959Z,2.00
2019-02-08T06:48:08.764Z,2.10
2019-02-08T06:50:49.560Z,2.10
2019-02-08T06:53:30.234Z,2.20
2019-02-08T06:56:30.085Z,2.10
2019-02-08T07:02:13.801Z,2.20
2019-02-08T07:07:48.129Z,2.20
2019-02-08T07:10:36.199Z,2.20
2019-02-08T07:13:14.907Z,2.30
2019-02-08T07:16:10.707Z,2.30
2019-02-08T07:19:05.511Z,2.30
2019-02-08T07:22:12.667Z,2.30
2019-02-08T07:25:19.833Z,2.30
2019-02-08T07:28:17.010Z,2.30
2019-02-08T07:31:24.291Z,2.40
2019-02-08T07:34:31.485Z,2.40
2019-02-08T07:37:39.013Z,2.40
2019-02-08T07:43:50.437Z,2.60
2019-02-08T07:46:50.589Z,2.70
2019-02-08T07:49:39.483Z,2.80
2019-02-08T07:52:36.859Z,2.90
2019-02-08T07:55:36.843Z,3.00
2019-02-08T07:58:26.887Z,3.20
2019-02-08T08:01:27.110Z,3.30
2019-02-08T08:04:26.599Z,3.60
2019-02-08T08:07:14.909Z,3.70
2019-02-08T08:10:01.832Z,3.80
2019-02-08T08:13:01.797Z,3.80
2019-02-08T08:16:01.530Z,3.90
2019-02-08T08:19:04.957Z,4.10
2019-02-08T08:24:47.531Z,4.30
2019-02-08T08:27:47.741Z,4.30
2019-02-08T08:30:36.174Z,4.40
2019-02-08T08:33:20.121Z,4.40
2019-02-08T08:36:01.562Z,4.40
2019-02-08T08:38:42.759Z,4.30
2019-02-08T08:41:23.321Z,4.30
2019-02-08T08:46:46.945Z,4.30
2019-02-08T08:49:27.943Z,4.40
2019-02-08T08:52:08.590Z,4.40
2019-02-08T08:54:49.283Z,4.50
2019-02-08T08:57:30.090Z,4.60
2019-02-08T09:00:11.342Z,4.80
2019-02-08T09:02:52.351Z,5.00
2019-02-08T09:05:33.326Z,5.30
2019-02-08T09:08:13.860Z,5.50
2019-02-08T09:10:54.475Z,5.60
2019-02-08T09:13:35.266Z,5.50
2019-02-08T09:16:16.355Z,5.60
2019-02-08T09:18:57.164Z,5.60
2019-02-08T09:21:38.096Z,5.70
2019-02-08T09:24:19.438Z,5.80
2019-02-08T09:27:00.335Z,5.80
2019-02-08T09:29:42.653Z,5.90
2019-02-08T09:32:24.078Z,6.00
2019-02-08T09:35:04.992Z,6.10
2019-02-08T09:37:45.829Z,6.10
2019-02-08T09:40:26.663Z,6.20
2019-02-08T09:43:07.542Z,6.40
2019-02-08T09:45:48.494Z,7.10
2019-02-08T09:51:12.040Z,8.70
2019-02-08T09:53:52.461Z,8.80
2019-02-08T09:56:33.120Z,8.70
2019-02-08T09:59:13.700Z,8.80
2019-02-08T10:04:36.249Z,9.20
2019-02-08T10:09:58.686Z,9.70
2019-02-08T10:12:39.073Z,9.40
2019-02-08T10:15:19.858Z,9.60
2019-02-08T10:18:00.214Z,9.60
2019-02-08T10:20:40.926Z,10.00
2019-02-08T10:26:47.976Z,9.90
2019-02-08T10:29:55.254Z,9.30
2019-02-08T10:33:02.592Z,8.30
2019-02-08T10:36:09.866Z,8.30
2019-02-08T10:42:58.850Z,7.90
2019-02-08T10:46:06.233Z,8.10
2019-02-08T10:53:02.926Z,8.70
2019-02-08T10:56:14.980Z,8.70
2019-02-08T10:59:19.165Z,8.70
2019-02-08T11:02:26.430Z,8.60
2019-02-08T11:05:33.791Z,8.40
2019-02-08T11:12:16.150Z,8.40
2019-02-08T11:15:23.411Z,8.40
2019-02-08T11:18:34.202Z,8.50
2019-02-08T11:21:22.318Z,8.70
2019-02-08T11:24:10.509Z,8.50
2019-02-08T11:30:15.032Z,8.60
2019-02-08T11:32:56.049Z,8.70
2019-02-08T11:35:36.851Z,8.70
2019-02-08T11:38:18.009Z,8.70
2019-02-08T11:40:58.930Z,8.60
2019-02-08T11:43:39.570Z,8.60
2019-02-08T11:46:20.225Z,8.60
2019-02-08T11:49:00.854Z,8.70
2019-02-08T11:51:41.298Z,9.00
2019-02-08T11:54:21.813Z,9.50
2019-02-08T11:57:02.220Z,9.50
2019-02-08T11:59:31.164Z,9.60
2019-02-08T12:02:00.135Z,9.40
2019-02-08T12:04:48.285Z,9.10
2019-02-08T12:07:36.512Z,8.90
2019-02-08T12:10:24.607Z,9.00
2019-02-08T12:13:12.627Z,8.90
2019-02-08T12:16:00.757Z,8.90
2019-02-08T12:18:48.817Z,9.00
2019-02-08T12:21:36.944Z,9.00
2019-02-08T12:24:25.130Z,8.90
2019-02-08T12:27:13.203Z,9.00
2019-02-08T12:30:01.275Z,8.90
2019-02-08T12:32:49.332Z,8.60
2019-02-08T12:35:37.385Z,8.60
2019-02-08T12:38:25.529Z,8.60
2019-02-08T12:41:13.609Z,8.70
2019-02-08T12:44:13.567Z,8.80
2019-02-08T12:46:42.593Z,8.80
2019-02-08T12:49:30.624Z,8.80
2019-02-08T12:52:18.718Z,8.60
2019-02-08T12:58:21.321Z,8.50
2019-02-08T13:01:09.439Z,8.40
2019-02-08T13:03:57.528Z,8.30
2019-02-08T13:06:45.750Z,8.40
2019-02-08T13:09:33.792Z,8.40
2019-02-08T13:12:21.819Z,8.50
2019-02-08T13:15:10.272Z,8.50
2019-02-08T13:17:58.295Z,8.60
2019-02-08T13:20:46.396Z,8.80
2019-02-08T13:23:34.450Z,8.70
2019-02-08T13:26:22.590Z,8.70
2019-02-08T13:29:10.718Z,8.60
2019-02-08T13:31:58.828Z,8.60
2019-02-08T13:34:46.893Z,8.50
2019-02-08T13:37:35.629Z,8.70
2019-02-08T13:40:24.011Z,8.50
2019-02-08T13:43:12.070Z,8.50
2019-02-08T13:46:00.210Z,8.50
2019-02-08T13:48:41.586Z,8.60
2019-02-08T13:51:22.923Z,8.70
2019-02-08T13:54:04.228Z,8.80
2019-02-08T13:56:44.826Z,8.50
2019-02-08T13:59:25.720Z,8.50
2019-02-08T14:02:06.392Z,8.40
2019-02-08T14:04:47.264Z,8.30
2019-02-08T14:07:28.649Z,8.20
2019-02-08T14:10:09.756Z,8.10
2019-02-08T14:12:50.323Z,8.20
2019-02-08T14:15:30.904Z,8.20
2019-02-08T14:18:12.188Z,8.20
2019-02-08T14:20:52.996Z,8.20
2019-02-08T14:23:33.524Z,8.30
2019-02-08T14:26:13.972Z,8.40
2019-02-08T14:28:54.636Z,8.40
2019-02-08T14:31:35.496Z,8.30
2019-02-08T14:34:16.308Z,8.30
2019-02-08T14:36:56.942Z,8.30
2019-02-08T14:39:37.832Z,8.30
2019-02-08T14:42:18.763Z,8.30
2019-02-08T14:44:59.312Z,8.20
2019-02-08T14:47:41.949Z,8.30
2019-02-08T14:50:23.045Z,8.30
2019-02-08T14:53:03.440Z,8.30
2019-02-08T14:55:42.626Z,8.20
2019-02-08T14:58:30.735Z,8.20
2019-02-08T15:01:18.796Z,8.10
2019-02-08T15:04:07.690Z,8.10
2019-02-08T15:06:57.004Z,8.10
2019-02-08T15:09:45.094Z,8.10
2019-02-08T15:12:33.186Z,8.10
2019-02-08T15:15:14.066Z,8.00
2019-02-08T15:17:54.761Z,8.00
2019-02-08T15:20:35.541Z,8.00
2019-02-08T15:23:16.410Z,7.90
2019-02-08T15:25:57.113Z,7.80
2019-02-08T15:28:37.915Z,7.80
2019-02-08T15:31:19.202Z,7.70
2019-02-08T15:33:58.434Z,7.70
2019-02-08T15:36:49.224Z,7.80
2019-02-08T15:39:36.394Z,7.70
2019-02-08T15:42:24.459Z,7.70
2019-02-08T15:45:13.858Z,7.70
2019-02-08T15:48:01.988Z,7.70
2019-02-08T15:50:50.079Z,7.60
2019-02-08T15:53:38.221Z,7.60
2019-02-08T15:56:26.409Z,7.60
2019-02-08T15:59:14.647Z,7.50
2019-02-08T16:02:02.793Z,7.40
2019-02-08T16:04:50.922Z,7.40
2019-02-08T16:07:39.075Z,7.40
2019-02-08T16:10:27.267Z,7.40
2019-02-08T16:13:15.377Z,7.40
2019-02-08T16:18:58.651Z,7.40
2019-02-08T16:21:47.446Z,7.40
2019-02-08T16:24:35.607Z,7.40
2019-02-08T16:27:23.734Z,7.40
2019-02-08T16:33:27.757Z,7.40
2019-02-08T16:36:15.872Z,7.40
2019-02-08T16:39:06.625Z,7.40
2019-02-08T16:41:55.147Z,7.40
2019-02-08T16:44:43.327Z,7.40
2019-02-08T16:47:24.364Z,7.40
2019-02-08T16:50:05.179Z,7.40
2019-02-08T16:52:45.805Z,7.40
2019-02-08T16:55:26.515Z,7.30
2019-02-08T16:58:07.164Z,7.40
2019-02-08T17:00:47.651Z,7.40
2019-02-08T17:03:56.328Z,7.30
2019-02-08T17:06:44.711Z,7.40
2019-02-08T17:09:32.797Z,7.30
2019-02-08T17:12:20.852Z,7.40
2019-02-08T17:15:10.051Z,7.40
2019-02-08T17:17:58.313Z,7.40
2019-02-08T17:20:46.794Z,7.40
2019-02-08T17:23:34.857Z,7.40
2019-02-08T17:26:22.874Z,7.30
2019-02-08T17:29:10.915Z,7.30
2019-02-08T17:31:59.017Z,7.30
2019-02-08T17:34:47.086Z,7.30
2019-02-08T17:37:35.155Z,7.20
2019-02-08T17:43:53.068Z,7.20
2019-02-08T17:46:41.744Z,7.20
2019-02-08T17:49:22.615Z,7.20
2019-02-08T17:52:03.088Z,7.10
2019-02-08T17:54:44.004Z,7.00
2019-02-08T17:57:24.811Z,7.00
2019-02-08T18:00:06.100Z,7.00
2019-02-08T18:02:46.481Z,7.00
2019-02-08T18:05:27.184Z,7.00
2019-02-08T18:08:07.615Z,7.00
2019-02-08T18:10:48.254Z,6.90
2019-02-08T18:13:28.737Z,6.90
2019-02-08T18:16:09.326Z,6.90
2019-02-08T18:18:50.298Z,6.90
2019-02-08T18:21:30.849Z,6.80
2019-02-08T18:24:11.774Z,6.70
2019-02-08T18:26:52.532Z,6.70
2019-02-08T18:29:33.315Z,6.60
2019-02-08T18:32:14.130Z,6.60
2019-02-08T18:34:54.864Z,6.50
2019-02-08T18:37:35.504Z,6.50
2019-02-08T18:40:16.169Z,6.40
2019-02-08T18:42:57.194Z,6.40
2019-02-08T18:45:38.098Z,6.30
2019-02-08T18:48:18.763Z,6.30
2019-02-08T18:50:59.574Z,6.30
2019-02-08T18:53:40.288Z,6.20
2019-02-08T18:56:21.282Z,6.10
2019-02-08T18:59:02.155Z,6.00
2019-02-08T19:01:42.648Z,5.90
2019-02-08T19:04:23.523Z,5.80
2019-02-08T19:07:04.359Z,5.80
2019-02-08T19:09:45.053Z,5.70
2019-02-08T19:12:25.880Z,5.70
2019-02-08T19:15:06.952Z,5.70
2019-02-08T19:20:29.466Z,5.70
2019-02-08T19:23:10.160Z,5.60
2019-02-08T19:25:51.100Z,5.60
2019-02-08T19:28:32.088Z,5.50
2019-02-08T19:31:12.937Z,5.50
2019-02-08T19:36:35.921Z,5.40
2019-02-08T19:39:16.962Z,5.40
2019-02-08T19:41:58.054Z,5.40
2019-02-08T19:44:39.205Z,5.30
2019-02-08T19:47:19.934Z,5.30
2019-02-08T19:50:01.151Z,5.40
2019-02-08T19:55:24.699Z,5.40
2019-02-08T19:58:05.232Z,5.30
2019-02-08T20:00:45.682Z,5.30
2019-02-08T20:03:26.523Z,5.30
2019-02-08T20:06:07.037Z,5.30
2019-02-08T20:08:48.182Z,5.40
2019-02-08T20:11:29.315Z,5.40
2019-02-08T20:14:09.748Z,5.40
2019-02-08T20:16:50.425Z,5.40
2019-02-08T20:19:31.701Z,5.40
2019-02-08T20:22:12.517Z,5.40
2019-02-08T20:24:52.975Z,5.40
2019-02-08T20:27:33.993Z,5.50
2019-02-08T20:30:15.345Z,5.50
2019-02-08T20:32:55.720Z,5.60
2019-02-08T20:35:36.212Z,5.60
2019-02-08T20:38:17.015Z,5.70
2019-02-08T20:40:57.517Z,5.80
2019-02-08T20:43:37.989Z,5.90
2019-02-08T20:46:18.409Z,6.00
2019-02-08T20:48:59.883Z,6.10
2019-02-08T20:51:41.117Z,6.10
2019-02-08T20:54:22.069Z,6.20
2019-02-08T20:57:01.485Z,6.10
2019-02-08T20:59:49.628Z,6.10
2019-02-08T21:02:37.739Z,6.10
2019-02-08T21:05:26.211Z,6.20
2019-02-08T21:08:14.820Z,6.20
2019-02-08T21:11:02.931Z,6.20
2019-02-08T21:13:51.055Z,6.20
2019-02-08T21:16:39.211Z,6.30
2019-02-08T21:19:27.297Z,6.20
2019-02-08T21:22:15.349Z,6.20
2019-02-08T21:25:03.813Z,6.20
2019-02-08T21:27:52.000Z,6.10
2019-02-08T21:30:40.227Z,6.10
2019-02-08T21:33:28.295Z,6.00
2019-02-08T21:36:16.405Z,6.00
2019-02-08T21:42:19.551Z,5.90
2019-02-08T21:44:48.619Z,5.80
2019-02-08T21:47:17.671Z,5.80
2019-02-08T21:52:41.739Z,5.80
2019-02-08T21:55:22.474Z,5.70
2019-02-08T21:58:03.421Z,5.70
2019-02-08T22:00:44.588Z,5.70
2019-02-08T22:03:25.286Z,5.70
2019-02-08T22:06:06.459Z,5.70
2019-02-08T22:08:47.127Z,5.60
2019-02-08T22:11:16.043Z,5.60
2019-02-08T22:14:04.457Z,5.60
2019-02-08T22:16:52.619Z,5.60
2019-02-08T22:19:40.662Z,5.50
2019-02-08T22:22:28.746Z,5.50
2019-02-08T22:25:17.223Z,5.50
2019-02-08T22:28:05.408Z,5.50
2019-02-08T22:30:53.610Z,5.50
2019-02-08T22:33:41.683Z,5.50
2019-02-08T22:36:29.745Z,5.40
2019-02-08T22:38:58.651Z,5.30
2019-02-08T22:41:46.796Z,5.30
2019-02-08T22:44:34.845Z,5.20
2019-02-08T22:47:15.604Z,5.20
2019-02-08T22:49:56.026Z,5.10
2019-02-08T22:52:36.904Z,5.10
2019-02-08T22:55:17.453Z,5.10
2019-02-08T22:57:57.896Z,5.00
2019-02-08T23:00:39.657Z,4.90
2019-02-08T23:06:02.456Z,4.80
2019-02-08T23:08:43.310Z,4.80
2019-02-08T23:11:24.300Z,4.80
2019-02-08T23:14:05.379Z,4.80
2019-02-08T23:16:45.844Z,4.80
2019-02-08T23:19:26.246Z,4.80
2019-02-08T23:22:07.014Z,4.90
2019-02-08T23:24:48.214Z,4.90
2019-02-08T23:27:28.938Z,4.90
2019-02-08T23:30:09.960Z,5.00
2019-02-08T23:32:50.812Z,5.00
2019-02-08T23:35:32.224Z,5.00
2019-02-08T23:38:13.140Z,5.10
2019-02-08T23:40:54.160Z,5.00
2019-02-08T23:43:35.451Z,5.10
2019-02-08T23:46:16.452Z,5.10
2019-02-08T23:48:57.075Z,5.10
2019-02-08T23:51:37.526Z,5.10
2019-02-08T23:54:18.238Z,5.10
2019-02-08T23:56:58.560Z,5.10
2019-02-08T23:59:39.420Z,5.10
